PAL456 RPLL-RPVB
Flight info
| Callsign | PAL456 |
|---|---|
| Flight time | 0h 53m |
| Altitude | 35000 |
| Route | VERDE2R VERDE W24 TAPER B472 LAMBO LAMBO3P |
| Aircraft | A20N/M-SDE2E3FGHIRWXY/LB1 |
Departure
| Time | 2026-05-07 12:50 |
|---|---|
| Airport | Ninoy Aquino International Airport (RPLL) |
Arrival
| Time | 2026-05-07 13:43 |
|---|---|
| Airport | Bacolod-Silay International Airport (RPVB) |
| Time | Latitude | Longitude | Altitude | Speed | Heading |
|---|---|---|---|---|---|
| 2026-05-07 12:21 | 14.50854 | 121.01279 | 82 ft | 0 kts | 329° |
| 2026-05-07 12:38 | 14.50847 | 121.01284 | 82 ft | 2 kts | 329° |
| 2026-05-07 12:39 | 14.50834 | 121.01292 | 82 ft | 2 kts | 329° |
| 2026-05-07 12:39 | 14.50821 | 121.01300 | 82 ft | 2 kts | 329° |
| 2026-05-07 12:39 | 14.50807 | 121.01308 | 82 ft | 2 kts | 329° |
| 2026-05-07 12:39 | 14.50795 | 121.01316 | 82 ft | 2 kts | 329° |
| 2026-05-07 12:40 | 14.50786 | 121.01321 | 82 ft | 2 kts | 329° |
| 2026-05-07 12:40 | 14.50775 | 121.01332 | 82 ft | 2 kts | 294° |
| 2026-05-07 12:40 | 14.50772 | 121.01347 | 82 ft | 2 kts | 265° |
| 2026-05-07 12:40 | 14.50775 | 121.01359 | 82 ft | 0 kts | 243° |
| 2026-05-07 12:41 | 14.50779 | 121.01365 | 82 ft | 0 kts | 239° |
| 2026-05-07 12:41 | 14.50779 | 121.01366 | 82 ft | 0 kts | 239° |
| 2026-05-07 12:43 | 14.50779 | 121.01365 | 82 ft | 0 kts | 239° |
| 2026-05-07 12:43 | 14.50775 | 121.01358 | 82 ft | 2 kts | 240° |
| 2026-05-07 12:43 | 14.50764 | 121.01339 | 82 ft | 4 kts | 236° |
| 2026-05-07 12:43 | 14.50728 | 121.01316 | 82 ft | 7 kts | 187° |
| 2026-05-07 12:44 | 14.50667 | 121.01306 | 82 ft | 10 kts | 222° |
| 2026-05-07 12:44 | 14.50620 | 121.01231 | 82 ft | 14 kts | 239° |
| 2026-05-07 12:44 | 14.50567 | 121.01134 | 82 ft | 16 kts | 240° |
| 2026-05-07 12:44 | 14.50504 | 121.01022 | 82 ft | 19 kts | 240° |
| 2026-05-07 12:45 | 14.50434 | 121.00897 | 82 ft | 21 kts | 240° |
| 2026-05-07 12:45 | 14.50409 | 121.00851 | 82 ft | 21 kts | 240° |
| 2026-05-07 12:46 | 14.50158 | 121.00398 | 82 ft | 11 kts | 240° |
| 2026-05-07 12:46 | 14.50123 | 121.00336 | 82 ft | 10 kts | 240° |
| 2026-05-07 12:46 | 14.50084 | 121.00265 | 82 ft | 11 kts | 240° |
| 2026-05-07 12:46 | 14.50042 | 121.00190 | 82 ft | 12 kts | 240° |
| 2026-05-07 12:47 | 14.49997 | 121.00109 | 82 ft | 13 kts | 240° |
| 2026-05-07 12:47 | 14.49950 | 121.00024 | 82 ft | 13 kts | 240° |
| 2026-05-07 12:47 | 14.49903 | 120.99966 | 82 ft | 5 kts | 198° |
| 2026-05-07 12:47 | 14.49862 | 120.99974 | 82 ft | 6 kts | 154° |
| 2026-05-07 12:48 | 14.49818 | 120.99999 | 82 ft | 7 kts | 151° |
| 2026-05-07 12:48 | 14.49799 | 121.00040 | 82 ft | 6 kts | 66° |
| 2026-05-07 12:48 | 14.49825 | 121.00087 | 82 ft | 8 kts | 60° |
| 2026-05-07 12:48 | 14.49854 | 121.00140 | 82 ft | 9 kts | 60° |
| 2026-05-07 12:49 | 14.49998 | 121.00399 | 82 ft | 76 kts | 60° |
| 2026-05-07 12:49 | 14.50363 | 121.01052 | 82 ft | 134 kts | 60° |
| 2026-05-07 12:49 | 14.50912 | 121.02044 | 143 ft | 176 kts | 60° |
| 2026-05-07 12:49 | 14.51570 | 121.03151 | 608 ft | 183 kts | 58° |
| 2026-05-07 12:50 | 14.52188 | 121.04240 | 1412 ft | 174 kts | 62° |
| 2026-05-07 12:50 | 14.52763 | 121.05304 | 2069 ft | 172 kts | 62° |
| 2026-05-07 12:50 | 14.53372 | 121.06429 | 2406 ft | 187 kts | 61° |
| 2026-05-07 12:50 | 14.54041 | 121.07650 | 2747 ft | 203 kts | 61° |
| 2026-05-07 12:51 | 14.54765 | 121.08968 | 3156 ft | 219 kts | 61° |
| 2026-05-07 12:51 | 14.55524 | 121.10346 | 3752 ft | 226 kts | 60° |
| 2026-05-07 12:51 | 14.56281 | 121.11771 | 4448 ft | 229 kts | 67° |
| 2026-05-07 12:51 | 14.56487 | 121.13371 | 5179 ft | 232 kts | 99° |
| 2026-05-07 12:52 | 14.55829 | 121.14893 | 5924 ft | 237 kts | 127° |
| 2026-05-07 12:52 | 14.54675 | 121.16112 | 6589 ft | 243 kts | 132° |
| 2026-05-07 12:52 | 14.53456 | 121.17339 | 7308 ft | 246 kts | 131° |
| 2026-05-07 12:52 | 14.52248 | 121.18568 | 8072 ft | 247 kts | 131° |
| 2026-05-07 12:53 | 14.51027 | 121.19823 | 8807 ft | 248 kts | 131° |
| 2026-05-07 12:53 | 14.49813 | 121.21077 | 9533 ft | 249 kts | 131° |
| 2026-05-07 12:53 | 14.48595 | 121.22340 | 10201 ft | 252 kts | 132° |
| 2026-05-07 12:53 | 14.47299 | 121.23558 | 10825 ft | 257 kts | 146° |
| 2026-05-07 12:54 | 14.45583 | 121.24131 | 11448 ft | 265 kts | 176° |
| 2026-05-07 12:54 | 14.43796 | 121.23782 | 12074 ft | 270 kts | 205° |
| 2026-05-07 12:54 | 14.42300 | 121.22578 | 12682 ft | 275 kts | 226° |
| 2026-05-07 12:54 | 14.41040 | 121.21081 | 13248 ft | 278 kts | 227° |
| 2026-05-07 12:55 | 14.39762 | 121.19560 | 13788 ft | 282 kts | 227° |
| 2026-05-07 12:55 | 14.38467 | 121.18044 | 14341 ft | 285 kts | 227° |
| 2026-05-07 12:55 | 14.37154 | 121.16522 | 14890 ft | 287 kts | 227° |
| 2026-05-07 12:55 | 14.35814 | 121.14981 | 15440 ft | 290 kts | 227° |
| 2026-05-07 12:56 | 14.34457 | 121.13428 | 16001 ft | 293 kts | 227° |
| 2026-05-07 12:56 | 14.33094 | 121.11867 | 16519 ft | 296 kts | 227° |
| 2026-05-07 12:56 | 14.31708 | 121.10284 | 17035 ft | 299 kts | 227° |
| 2026-05-07 12:56 | 14.30309 | 121.08687 | 17524 ft | 302 kts | 227° |
| 2026-05-07 12:57 | 14.28870 | 121.07076 | 18041 ft | 304 kts | 224° |
| 2026-05-07 12:57 | 14.27310 | 121.05633 | 18555 ft | 305 kts | 217° |
| 2026-05-07 12:57 | 14.25578 | 121.04336 | 19071 ft | 307 kts | 213° |
| 2026-05-07 12:57 | 14.23802 | 121.03088 | 19569 ft | 309 kts | 213° |
| 2026-05-07 12:58 | 14.22016 | 121.01843 | 20055 ft | 312 kts | 213° |
| 2026-05-07 12:58 | 14.20209 | 121.00581 | 20538 ft | 315 kts | 213° |
| 2026-05-07 12:58 | 14.18401 | 120.99313 | 21015 ft | 318 kts | 213° |
| 2026-05-07 12:58 | 14.16551 | 120.98012 | 21497 ft | 320 kts | 213° |
| 2026-05-07 12:59 | 14.14724 | 120.96725 | 21976 ft | 323 kts | 213° |
| 2026-05-07 12:59 | 14.12841 | 120.95400 | 22451 ft | 326 kts | 214° |
| 2026-05-07 12:59 | 14.10963 | 120.94077 | 22929 ft | 328 kts | 214° |
| 2026-05-07 12:59 | 14.09075 | 120.92748 | 23394 ft | 331 kts | 214° |
| 2026-05-07 13:00 | 14.07173 | 120.91408 | 23854 ft | 334 kts | 214° |
| 2026-05-07 13:00 | 14.05154 | 120.90144 | 24302 ft | 337 kts | 200° |
| 2026-05-07 13:00 | 14.02879 | 120.89726 | 24755 ft | 336 kts | 174° |
| 2026-05-07 13:00 | 14.00577 | 120.90180 | 25254 ft | 336 kts | 164° |
| 2026-05-07 13:01 | 13.98290 | 120.90807 | 25616 ft | 342 kts | 164° |
| 2026-05-07 13:01 | 13.95971 | 120.91435 | 25996 ft | 346 kts | 165° |
| 2026-05-07 13:01 | 13.93615 | 120.92062 | 26404 ft | 350 kts | 165° |
| 2026-05-07 13:01 | 13.91225 | 120.92688 | 26814 ft | 354 kts | 165° |
| 2026-05-07 13:02 | 13.88824 | 120.93310 | 27228 ft | 356 kts | 166° |
| 2026-05-07 13:02 | 13.86431 | 120.93922 | 27610 ft | 360 kts | 166° |
| 2026-05-07 13:02 | 13.83986 | 120.94547 | 27964 ft | 363 kts | 166° |
| 2026-05-07 13:02 | 13.81503 | 120.95181 | 28328 ft | 367 kts | 166° |
| 2026-05-07 13:03 | 13.79014 | 120.95818 | 28707 ft | 369 kts | 166° |
| 2026-05-07 13:03 | 13.76501 | 120.96461 | 29063 ft | 372 kts | 166° |
| 2026-05-07 13:03 | 13.73984 | 120.97106 | 29434 ft | 373 kts | 166° |
| 2026-05-07 13:03 | 13.71456 | 120.97755 | 29802 ft | 374 kts | 166° |
| 2026-05-07 13:04 | 13.68918 | 120.98405 | 30158 ft | 375 kts | 166° |
| 2026-05-07 13:04 | 13.66406 | 120.99049 | 30506 ft | 376 kts | 166° |
| 2026-05-07 13:04 | 13.63861 | 120.99702 | 30836 ft | 377 kts | 167° |
| 2026-05-07 13:04 | 13.61288 | 121.00362 | 31168 ft | 378 kts | 167° |
| 2026-05-07 13:05 | 13.58743 | 121.01012 | 31490 ft | 379 kts | 167° |
| 2026-05-07 13:05 | 13.56173 | 121.01668 | 31796 ft | 380 kts | 167° |
| 2026-05-07 13:05 | 13.53613 | 121.02361 | 32087 ft | 382 kts | 165° |
| 2026-05-07 13:05 | 13.51070 | 121.03225 | 32388 ft | 383 kts | 161° |
| 2026-05-07 13:06 | 13.48613 | 121.04257 | 32711 ft | 385 kts | 157° |
| 2026-05-07 13:06 | 13.46191 | 121.05484 | 33033 ft | 387 kts | 153° |
| 2026-05-07 13:06 | 13.43842 | 121.06808 | 33334 ft | 389 kts | 153° |
| 2026-05-07 13:06 | 13.41459 | 121.08167 | 33634 ft | 391 kts | 153° |
| 2026-05-07 13:07 | 13.39061 | 121.09535 | 33928 ft | 393 kts | 153° |
| 2026-05-07 13:07 | 13.36667 | 121.10899 | 34211 ft | 395 kts | 153° |
| 2026-05-07 13:07 | 13.34246 | 121.12278 | 34482 ft | 397 kts | 153° |
| 2026-05-07 13:07 | 13.31820 | 121.13658 | 34741 ft | 399 kts | 153° |
| 2026-05-07 13:08 | 13.29401 | 121.15032 | 34953 ft | 402 kts | 153° |
| 2026-05-07 13:08 | 13.26920 | 121.16441 | 34960 ft | 410 kts | 153° |
| 2026-05-07 13:08 | 13.21814 | 121.19337 | 34955 ft | 425 kts | 153° |
| 2026-05-07 13:09 | 13.16552 | 121.22319 | 34937 ft | 436 kts | 153° |
| 2026-05-07 13:09 | 13.11239 | 121.25331 | 34924 ft | 437 kts | 153° |
| 2026-05-07 13:10 | 13.05909 | 121.28352 | 34925 ft | 436 kts | 153° |
| 2026-05-07 13:10 | 13.00599 | 121.31362 | 34931 ft | 436 kts | 153° |
| 2026-05-07 13:11 | 12.95289 | 121.34370 | 34927 ft | 436 kts | 153° |
| 2026-05-07 13:11 | 12.89988 | 121.37372 | 34923 ft | 437 kts | 153° |
| 2026-05-07 13:12 | 12.84638 | 121.40387 | 34911 ft | 437 kts | 153° |
| 2026-05-07 13:12 | 12.79317 | 121.43388 | 34900 ft | 437 kts | 153° |
| 2026-05-07 13:13 | 12.73956 | 121.46414 | 34884 ft | 437 kts | 153° |
| 2026-05-07 13:13 | 12.68668 | 121.49400 | 34867 ft | 437 kts | 153° |
| 2026-05-07 13:14 | 12.63313 | 121.52425 | 34853 ft | 436 kts | 153° |
| 2026-05-07 13:14 | 12.58009 | 121.55421 | 34848 ft | 436 kts | 153° |
| 2026-05-07 13:15 | 12.52677 | 121.58431 | 34852 ft | 436 kts | 153° |
| 2026-05-07 13:15 | 12.47373 | 121.61423 | 34849 ft | 437 kts | 153° |
| 2026-05-07 13:16 | 12.42017 | 121.64444 | 34849 ft | 437 kts | 153° |
| 2026-05-07 13:16 | 12.36722 | 121.67448 | 34847 ft | 437 kts | 153° |
| 2026-05-07 13:17 | 12.31391 | 121.70476 | 34844 ft | 437 kts | 153° |
| 2026-05-07 13:17 | 12.26058 | 121.73489 | 34286 ft | 437 kts | 153° |
| 2026-05-07 13:18 | 12.23382 | 121.74995 | 33072 ft | 448 kts | 153° |
| 2026-05-07 13:18 | 12.20640 | 121.76534 | 31698 ft | 462 kts | 153° |
| 2026-05-07 13:18 | 12.17780 | 121.78138 | 30401 ft | 474 kts | 152° |
| 2026-05-07 13:18 | 12.14910 | 121.79748 | 29261 ft | 481 kts | 152° |
| 2026-05-07 13:19 | 12.11961 | 121.81403 | 28161 ft | 486 kts | 152° |
| 2026-05-07 13:19 | 12.08991 | 121.83070 | 27083 ft | 489 kts | 152° |
| 2026-05-07 13:19 | 12.05998 | 121.84748 | 26030 ft | 491 kts | 151° |
| 2026-05-07 13:19 | 12.03031 | 121.86412 | 24973 ft | 492 kts | 150° |
| 2026-05-07 13:20 | 12.00000 | 121.88113 | 23867 ft | 494 kts | 150° |
| 2026-05-07 13:20 | 11.97028 | 121.89782 | 23090 ft | 487 kts | 150° |
| 2026-05-07 13:20 | 11.94074 | 121.91441 | 22475 ft | 478 kts | 150° |
| 2026-05-07 13:20 | 11.91194 | 121.93059 | 21777 ft | 472 kts | 149° |
| 2026-05-07 13:21 | 11.88323 | 121.94669 | 21064 ft | 467 kts | 149° |
| 2026-05-07 13:21 | 11.85498 | 121.96247 | 20374 ft | 462 kts | 149° |
| 2026-05-07 13:21 | 11.82696 | 121.97813 | 19689 ft | 457 kts | 149° |
| 2026-05-07 13:21 | 11.79929 | 121.99361 | 19007 ft | 451 kts | 149° |
| 2026-05-07 13:22 | 11.77197 | 122.00890 | 18330 ft | 447 kts | 149° |
| 2026-05-07 13:22 | 11.74475 | 122.02416 | 17646 ft | 442 kts | 149° |
| 2026-05-07 13:22 | 11.71776 | 122.03930 | 16964 ft | 437 kts | 149° |
| 2026-05-07 13:22 | 11.69127 | 122.05416 | 16284 ft | 433 kts | 149° |
| 2026-05-07 13:23 | 11.66522 | 122.06878 | 15608 ft | 429 kts | 149° |
| 2026-05-07 13:23 | 11.63916 | 122.08340 | 14944 ft | 425 kts | 149° |
| 2026-05-07 13:23 | 11.61340 | 122.09784 | 14284 ft | 421 kts | 149° |
| 2026-05-07 13:23 | 11.58771 | 122.11224 | 13620 ft | 417 kts | 149° |
| 2026-05-07 13:24 | 11.56249 | 122.12638 | 12955 ft | 414 kts | 149° |
| 2026-05-07 13:24 | 11.53715 | 122.14057 | 12298 ft | 410 kts | 149° |
| 2026-05-07 13:24 | 11.51226 | 122.15450 | 11662 ft | 406 kts | 149° |
| 2026-05-07 13:24 | 11.48795 | 122.16812 | 11163 ft | 397 kts | 149° |
| 2026-05-07 13:25 | 11.46400 | 122.18152 | 11065 ft | 379 kts | 148° |
| 2026-05-07 13:25 | 11.44154 | 122.19408 | 11056 ft | 359 kts | 148° |
| 2026-05-07 13:25 | 11.42001 | 122.20615 | 10685 ft | 353 kts | 148° |
| 2026-05-07 13:25 | 11.39823 | 122.21838 | 9887 ft | 360 kts | 148° |
| 2026-05-07 13:26 | 11.37633 | 122.23068 | 9342 ft | 357 kts | 148° |
| 2026-05-07 13:26 | 11.35470 | 122.24278 | 9049 ft | 347 kts | 148° |
| 2026-05-07 13:26 | 11.33396 | 122.25437 | 8994 ft | 329 kts | 148° |
| 2026-05-07 13:26 | 11.31452 | 122.26524 | 8987 ft | 312 kts | 147° |
| 2026-05-07 13:27 | 11.29582 | 122.27571 | 8982 ft | 295 kts | 147° |
| 2026-05-07 13:27 | 11.27837 | 122.28551 | 8982 ft | 285 kts | 147° |
| 2026-05-07 13:27 | 11.26098 | 122.29530 | 8981 ft | 285 kts | 147° |
| 2026-05-07 13:27 | 11.24342 | 122.30518 | 8978 ft | 285 kts | 147° |
| 2026-05-07 13:28 | 11.22588 | 122.31502 | 8977 ft | 285 kts | 147° |
| 2026-05-07 13:28 | 11.20852 | 122.32472 | 8977 ft | 285 kts | 147° |
| 2026-05-07 13:28 | 11.19120 | 122.33439 | 8976 ft | 285 kts | 147° |
| 2026-05-07 13:28 | 11.17355 | 122.34423 | 8974 ft | 285 kts | 147° |
| 2026-05-07 13:29 | 11.15626 | 122.35416 | 8971 ft | 284 kts | 145° |
| 2026-05-07 13:29 | 11.13928 | 122.36446 | 8971 ft | 284 kts | 145° |
| 2026-05-07 13:29 | 11.12233 | 122.37481 | 8971 ft | 284 kts | 145° |
| 2026-05-07 13:29 | 11.10524 | 122.38524 | 8968 ft | 284 kts | 145° |
| 2026-05-07 13:30 | 11.08839 | 122.39553 | 8960 ft | 284 kts | 145° |
| 2026-05-07 13:30 | 11.07135 | 122.40595 | 8956 ft | 283 kts | 145° |
| 2026-05-07 13:30 | 11.05444 | 122.41626 | 8732 ft | 279 kts | 145° |
| 2026-05-07 13:30 | 11.03784 | 122.42641 | 8315 ft | 280 kts | 144° |
| 2026-05-07 13:31 | 11.02122 | 122.43657 | 7935 ft | 279 kts | 144° |
| 2026-05-07 13:31 | 11.00444 | 122.44682 | 7678 ft | 276 kts | 144° |
| 2026-05-07 13:31 | 10.98784 | 122.45695 | 7644 ft | 278 kts | 144° |
| 2026-05-07 13:31 | 10.97129 | 122.46709 | 7636 ft | 279 kts | 144° |
| 2026-05-07 13:32 | 10.95461 | 122.47728 | 7629 ft | 279 kts | 144° |
| 2026-05-07 13:32 | 10.93782 | 122.48754 | 7623 ft | 279 kts | 144° |
| 2026-05-07 13:32 | 10.92116 | 122.49770 | 7619 ft | 279 kts | 144° |
| 2026-05-07 13:32 | 10.90460 | 122.50780 | 7617 ft | 279 kts | 144° |
| 2026-05-07 13:33 | 10.88783 | 122.51827 | 7614 ft | 277 kts | 140° |
| 2026-05-07 13:33 | 10.87325 | 122.53073 | 7616 ft | 273 kts | 130° |
| 2026-05-07 13:33 | 10.86097 | 122.54550 | 7618 ft | 272 kts | 124° |
| 2026-05-07 13:33 | 10.84952 | 122.56075 | 7614 ft | 271 kts | 123° |
| 2026-05-07 13:34 | 10.83818 | 122.57606 | 7599 ft | 269 kts | 123° |
| 2026-05-07 13:34 | 10.81575 | 122.60627 | 6876 ft | 268 kts | 123° |
| 2026-05-07 13:34 | 10.80460 | 122.62123 | 6512 ft | 266 kts | 123° |
| 2026-05-07 13:35 | 10.79345 | 122.63615 | 6162 ft | 264 kts | 123° |
| 2026-05-07 13:35 | 10.78236 | 122.65102 | 5795 ft | 263 kts | 123° |
| 2026-05-07 13:35 | 10.77136 | 122.66582 | 5435 ft | 262 kts | 123° |
| 2026-05-07 13:35 | 10.76034 | 122.68071 | 5066 ft | 261 kts | 123° |
| 2026-05-07 13:36 | 10.74939 | 122.69544 | 4698 ft | 261 kts | 123° |
| 2026-05-07 13:36 | 10.73847 | 122.71011 | 4345 ft | 260 kts | 123° |
| 2026-05-07 13:36 | 10.72767 | 122.72458 | 3993 ft | 259 kts | 123° |
| 2026-05-07 13:36 | 10.71677 | 122.73919 | 3642 ft | 258 kts | 123° |
| 2026-05-07 13:37 | 10.70590 | 122.75371 | 3525 ft | 257 kts | 123° |
| 2026-05-07 13:37 | 10.69496 | 122.76833 | 3427 ft | 259 kts | 123° |
| 2026-05-07 13:37 | 10.68418 | 122.78272 | 3326 ft | 257 kts | 123° |
| 2026-05-07 13:37 | 10.67325 | 122.79731 | 3324 ft | 257 kts | 123° |
| 2026-05-07 13:38 | 10.66364 | 122.81224 | 3221 ft | 250 kts | 110° |
| 2026-05-07 13:38 | 10.65929 | 122.82904 | 2851 ft | 245 kts | 92° |
| 2026-05-07 13:38 | 10.65854 | 122.84617 | 2574 ft | 245 kts | 89° |
| 2026-05-07 13:38 | 10.65808 | 122.86369 | 2525 ft | 247 kts | 89° |
| 2026-05-07 13:39 | 10.65756 | 122.88097 | 2520 ft | 247 kts | 90° |
| 2026-05-07 13:39 | 10.65697 | 122.89847 | 2521 ft | 247 kts | 90° |
| 2026-05-07 13:39 | 10.65632 | 122.91525 | 2509 ft | 227 kts | 90° |
| 2026-05-07 13:39 | 10.65571 | 122.93056 | 2499 ft | 203 kts | 90° |
| 2026-05-07 13:40 | 10.65670 | 122.94402 | 2440 ft | 182 kts | 67° |
| 2026-05-07 13:40 | 10.66428 | 122.95336 | 2273 ft | 167 kts | 40° |
| 2026-05-07 13:40 | 10.67376 | 122.95946 | 2075 ft | 156 kts | 32° |
| 2026-05-07 13:40 | 10.68303 | 122.96458 | 1910 ft | 146 kts | 32° |
| 2026-05-07 13:41 | 10.69186 | 122.96954 | 1731 ft | 144 kts | 33° |
| 2026-05-07 13:41 | 10.70064 | 122.97465 | 1589 ft | 145 kts | 33° |
| 2026-05-07 13:41 | 10.70934 | 122.97973 | 1394 ft | 143 kts | 33° |
| 2026-05-07 13:41 | 10.71792 | 122.98476 | 1203 ft | 143 kts | 33° |
| 2026-05-07 13:42 | 10.72655 | 122.98981 | 1015 ft | 142 kts | 33° |
| 2026-05-07 13:42 | 10.73514 | 122.99480 | 843 ft | 142 kts | 32° |
| 2026-05-07 13:42 | 10.74396 | 122.99969 | 669 ft | 141 kts | 31° |
| 2026-05-07 13:42 | 10.75244 | 123.00465 | 549 ft | 142 kts | 31° |
| 2026-05-07 13:43 | 10.76093 | 123.00987 | 336 ft | 141 kts | 31° |
| 2026-05-07 13:43 | 10.76920 | 123.01470 | 142 ft | 134 kts | 29° |
| 2026-05-07 13:43 | 10.77629 | 123.01887 | 97 ft | 81 kts | 30° |
| 2026-05-07 13:43 | 10.77932 | 123.02071 | 98 ft | 39 kts | 31° |
| 2026-05-07 13:44 | 10.78154 | 123.02202 | 98 ft | 34 kts | 27° |
| 2026-05-07 13:44 | 10.78341 | 123.02300 | 98 ft | 22 kts | 18° |
| 2026-05-07 13:44 | 10.78431 | 123.02335 | 97 ft | 9 kts | 89° |
| 2026-05-07 13:44 | 10.78371 | 123.02327 | 98 ft | 10 kts | 216° |
| 2026-05-07 13:45 | 10.78305 | 123.02282 | 98 ft | 11 kts | 209° |
| 2026-05-07 13:45 | 10.78230 | 123.02241 | 98 ft | 12 kts | 209° |
| 2026-05-07 13:45 | 10.78151 | 123.02196 | 98 ft | 13 kts | 210° |
| 2026-05-07 13:45 | 10.78055 | 123.02140 | 98 ft | 18 kts | 210° |
| 2026-05-07 13:46 | 10.77930 | 123.02068 | 98 ft | 22 kts | 210° |
| 2026-05-07 13:46 | 10.77797 | 123.01989 | 98 ft | 20 kts | 211° |
| 2026-05-07 13:46 | 10.77692 | 123.01922 | 98 ft | 14 kts | 236° |
| 2026-05-07 13:46 | 10.77704 | 123.01826 | 95 ft | 14 kts | 300° |
| 2026-05-07 13:47 | 10.77745 | 123.01744 | 94 ft | 11 kts | 279° |
| 2026-05-07 13:47 | 10.77702 | 123.01675 | 94 ft | 12 kts | 212° |
| 2026-05-07 13:47 | 10.77622 | 123.01629 | 94 ft | 13 kts | 210° |
| 2026-05-07 13:47 | 10.77564 | 123.01594 | 93 ft | 7 kts | 222° |
| 2026-05-07 13:48 | 10.77571 | 123.01565 | 93 ft | 5 kts | 297° |
| 2026-05-07 13:48 | 10.77591 | 123.01527 | 92 ft | 6 kts | 299° |
| 2026-05-07 13:48 | 10.77594 | 123.01521 | 92 ft | 0 kts | 299° |
| 2026-05-07 13:48 | 10.77596 | 123.01518 | 92 ft | 0 kts | 299° |
| 2026-05-07 13:49 | 10.77597 | 123.01516 | 92 ft | 0 kts | 300° |
| 2026-05-07 13:49 | 10.77593 | 123.01523 | 92 ft | 0 kts | 301° |